createdAt,value
2017-12-30T00:00:54.936Z,72.10
2017-12-30T00:03:21.932Z,72.50
2017-12-30T00:05:48.506Z,72.40
2017-12-30T00:08:14.899Z,70.90
2017-12-30T00:10:43.946Z,72.30
2017-12-30T00:13:10.340Z,72.30
2017-12-30T00:28:41.735Z,72.10
2017-12-30T00:31:08.118Z,74.50
2017-12-30T00:33:35.620Z,75.20
2017-12-30T00:36:02.412Z,75.20
2017-12-30T00:48:19.338Z,74.50
2017-12-30T00:50:45.922Z,72.40
2017-12-30T00:53:12.780Z,73.60
2017-12-30T00:55:39.330Z,74.40
2017-12-30T00:58:06.406Z,74.60
2017-12-30T01:00:33.351Z,74.50
2017-12-30T01:02:59.569Z,73.80
2017-12-30T01:05:26.097Z,73.20
2017-12-30T01:07:53.004Z,74.30
2017-12-30T01:10:19.772Z,74.30
2017-12-30T01:12:47.001Z,72.90
2017-12-30T01:15:14.752Z,72.40
2017-12-30T01:17:42.860Z,73.40
2017-12-30T01:29:54.838Z,73.40
2017-12-30T01:32:21.821Z,75.30
2017-12-30T01:34:49.393Z,76.40
2017-12-30T01:37:15.616Z,76.30
2017-12-30T01:39:42.825Z,75.00
2017-12-30T01:42:09.596Z,75.70
2017-12-30T01:44:36.052Z,76.60
2017-12-30T01:47:03.338Z,76.90
2017-12-30T01:49:31.044Z,77.50
2017-12-30T01:51:58.859Z,76.00
2017-12-30T01:54:25.925Z,75.50
2017-12-30T01:56:52.153Z,75.40
2017-12-30T01:59:19.385Z,75.40
2017-12-30T02:01:46.349Z,74.90
2017-12-30T02:04:12.750Z,74.90
2017-12-30T02:06:39.774Z,74.50
2017-12-30T02:09:06.014Z,74.30
2017-12-30T02:11:33.007Z,74.30
2017-12-30T02:14:00.635Z,75.50
2017-12-30T02:16:28.145Z,74.70
2017-12-30T02:18:54.781Z,74.70
2017-12-30T02:21:22.362Z,73.90
2017-12-30T02:23:49.624Z,73.90
2017-12-30T02:26:16.602Z,75.70
2017-12-30T02:28:43.358Z,75.70
2017-12-30T02:31:10.381Z,74.80
2017-12-30T02:33:38.080Z,74.00
2017-12-30T02:36:05.152Z,73.60
2017-12-30T02:38:31.362Z,73.60
2017-12-30T02:40:58.190Z,73.50
2017-12-30T02:43:24.978Z,73.50
2017-12-30T02:45:52.669Z,73.40
2017-12-30T02:48:19.494Z,73.30
2017-12-30T02:50:48.009Z,73.10
2017-12-30T02:53:14.516Z,73.10
2017-12-30T02:55:41.619Z,73.40
2017-12-30T02:58:07.875Z,73.40
2017-12-30T03:00:34.258Z,73.30
2017-12-30T03:03:01.849Z,73.00
2017-12-30T03:05:28.077Z,72.90
2017-12-30T03:07:54.618Z,73.10
2017-12-30T03:10:21.603Z,72.70
2017-12-30T03:12:48.075Z,72.70
2017-12-30T03:15:15.229Z,74.80
2017-12-30T03:17:41.579Z,74.80
2017-12-30T03:20:08.339Z,75.20
2017-12-30T03:22:35.357Z,74.60
2017-12-30T03:25:02.025Z,73.80
2017-12-30T03:27:29.588Z,73.40
2017-12-30T03:29:57.080Z,73.20
2017-12-30T03:32:23.282Z,73.10
2017-12-30T03:34:50.828Z,73.00
2017-12-30T03:37:18.086Z,73.00
2017-12-30T03:39:45.131Z,73.20
2017-12-30T03:42:12.118Z,73.20
2017-12-30T03:44:38.324Z,73.20
2017-12-30T03:47:05.077Z,75.00
2017-12-30T03:49:31.294Z,74.80
2017-12-30T03:51:58.655Z,76.30
2017-12-30T03:54:25.027Z,76.20
2017-12-30T03:56:51.582Z,75.40
2017-12-30T03:59:19.186Z,74.60
2017-12-30T04:01:46.138Z,74.60
2017-12-30T04:04:13.109Z,75.50
2017-12-30T04:06:40.070Z,75.00
2017-12-30T04:09:07.926Z,75.00
2017-12-30T04:11:34.705Z,75.00
2017-12-30T04:14:01.346Z,74.80
2017-12-30T04:16:28.905Z,75.70
2017-12-30T04:18:55.617Z,75.70
2017-12-30T04:21:21.876Z,75.30
2017-12-30T04:23:48.627Z,75.40
2017-12-30T04:26:14.837Z,74.70
2017-12-30T04:28:41.045Z,74.40
2017-12-30T04:31:08.491Z,76.70
2017-12-30T04:33:35.487Z,77.60
2017-12-30T04:36:01.708Z,77.60
2017-12-30T04:38:28.017Z,77.70
2017-12-30T04:40:55.043Z,76.80
2017-12-30T04:43:21.999Z,76.00
2017-12-30T04:45:49.523Z,76.00
2017-12-30T04:48:16.731Z,76.70
2017-12-30T04:50:44.494Z,76.20
2017-12-30T04:53:10.732Z,76.10
2017-12-30T04:55:36.963Z,75.60
2017-12-30T04:58:05.040Z,76.30
2017-12-30T05:00:31.488Z,76.10
2017-12-30T05:02:58.912Z,75.70
2017-12-30T05:05:25.639Z,75.70
2017-12-30T05:07:53.358Z,75.40
2017-12-30T05:10:20.101Z,75.40
2017-12-30T05:12:46.985Z,75.40
2017-12-30T05:15:13.268Z,76.00
2017-12-30T05:17:39.639Z,76.10
2017-12-30T05:20:07.140Z,77.80
2017-12-30T05:22:33.362Z,77.80
2017-12-30T05:25:00.188Z,77.20
2017-12-30T05:27:26.414Z,76.60
2017-12-30T05:29:53.234Z,76.50
2017-12-30T05:32:20.215Z,77.90
2017-12-30T05:34:47.476Z,77.90
2017-12-30T05:37:14.024Z,77.50
2017-12-30T05:39:40.583Z,76.70
2017-12-30T05:42:07.347Z,76.40
2017-12-30T05:44:34.319Z,77.40
2017-12-30T05:47:02.127Z,77.50
2017-12-30T05:49:29.503Z,77.40
2017-12-30T05:51:56.528Z,77.30
2017-12-30T05:54:23.877Z,77.30
2017-12-30T05:56:50.362Z,76.70
2017-12-30T05:59:17.385Z,76.60
2017-12-30T06:01:44.495Z,76.50
2017-12-30T06:04:11.216Z,76.40
2017-12-30T06:06:37.533Z,76.10
2017-12-30T06:09:03.983Z,76.20
2017-12-30T06:11:31.922Z,76.10
2017-12-30T06:13:58.161Z,76.10
2017-12-30T06:16:24.934Z,76.80
2017-12-30T06:18:51.730Z,78.70
2017-12-30T06:21:18.804Z,78.70
2017-12-30T06:23:45.051Z,78.70
2017-12-30T06:26:11.752Z,78.00
2017-12-30T06:28:38.024Z,77.80
2017-12-30T06:31:04.221Z,78.60
2017-12-30T06:33:31.134Z,78.90
2017-12-30T06:35:58.439Z,79.10
2017-12-30T06:38:25.718Z,78.40
2017-12-30T06:40:52.846Z,78.40
2017-12-30T06:43:20.240Z,78.40
2017-12-30T06:45:48.029Z,77.70
2017-12-30T06:48:15.900Z,77.10
2017-12-30T06:50:42.626Z,77.10
2017-12-30T06:53:09.274Z,77.40
2017-12-30T06:55:36.363Z,77.60
2017-12-30T06:58:03.216Z,77.70
2017-12-30T07:00:29.496Z,78.70
2017-12-30T07:02:55.724Z,78.50
2017-12-30T07:05:23.022Z,77.50
2017-12-30T07:07:49.994Z,77.30
2017-12-30T07:10:17.928Z,77.30
2017-12-30T07:12:44.527Z,77.30
2017-12-30T07:15:11.470Z,77.60
2017-12-30T07:17:37.857Z,77.60
2017-12-30T07:20:05.519Z,78.50
2017-12-30T07:22:32.608Z,77.80
2017-12-30T07:24:58.940Z,77.80
2017-12-30T07:27:25.128Z,77.30
2017-12-30T07:29:52.094Z,78.20
2017-12-30T07:32:18.810Z,78.20
2017-12-30T07:51:00.228Z,78.30
2017-12-30T07:53:26.460Z,80.10
2017-12-30T07:55:53.082Z,79.90
2017-12-30T07:58:20.455Z,79.60
2017-12-30T08:00:48.063Z,79.50
2017-12-30T08:05:48.063Z,78.80
2017-12-30T08:08:14.384Z,78.80
2017-12-30T08:10:40.599Z,78.50
2017-12-30T08:13:07.036Z,79.00
2017-12-30T08:15:34.200Z,77.80
2017-12-30T08:18:01.636Z,77.60
2017-12-30T08:20:28.714Z,77.10
2017-12-30T08:22:55.517Z,77.10
2017-12-30T08:25:22.593Z,77.10
2017-12-30T08:27:48.804Z,77.00
2017-12-30T08:30:15.521Z,77.30
2017-12-30T08:32:43.227Z,77.20
2017-12-30T08:35:09.536Z,77.20
2017-12-30T08:37:35.774Z,77.20
2017-12-30T08:40:02.179Z,77.40
2017-12-30T08:42:28.434Z,77.50
2017-12-30T08:44:54.711Z,77.40
2017-12-30T08:47:20.950Z,76.80
2017-12-30T08:49:48.497Z,77.50
2017-12-30T08:52:15.298Z,77.50
2017-12-30T08:54:41.542Z,77.50
2017-12-30T08:57:07.759Z,77.90
2017-12-30T08:59:34.272Z,78.20
2017-12-30T09:02:01.851Z,78.10
2017-12-30T09:04:28.961Z,78.40
2017-12-30T09:06:55.299Z,78.40
2017-12-30T09:09:21.955Z,78.60
2017-12-30T09:11:48.990Z,78.20
2017-12-30T09:14:15.262Z,78.10
2017-12-30T09:16:41.991Z,77.80
2017-12-30T09:19:09.724Z,77.80
2017-12-30T09:21:36.907Z,77.70
2017-12-30T09:24:03.135Z,77.60
2017-12-30T09:26:29.579Z,77.30
2017-12-30T09:28:56.757Z,77.80
2017-12-30T09:31:22.972Z,77.70
2017-12-30T09:33:49.235Z,78.50
2017-12-30T09:36:15.562Z,79.00
2017-12-30T09:38:42.146Z,79.10
2017-12-30T09:41:09.334Z,78.90
2017-12-30T09:43:36.298Z,79.20
2017-12-30T09:46:02.537Z,79.10
2017-12-30T09:48:28.750Z,79.80
2017-12-30T09:50:56.005Z,79.40
2017-12-30T09:53:22.271Z,79.10
2017-12-30T09:55:49.236Z,79.10
2017-12-30T09:58:16.239Z,78.70
2017-12-30T10:00:42.487Z,78.60
2017-12-30T10:03:08.749Z,78.30
2017-12-30T10:05:35.748Z,78.50
2017-12-30T10:08:01.973Z,78.60
2017-12-30T10:10:28.858Z,78.60
2017-12-30T10:12:55.351Z,78.50
2017-12-30T10:15:22.190Z,78.10
2017-12-30T10:17:48.480Z,77.00
2017-12-30T10:20:15.592Z,76.20
2017-12-30T10:22:43.442Z,76.80
2017-12-30T10:25:09.816Z,76.80
2017-12-30T10:27:36.786Z,77.20
2017-12-30T10:30:03.051Z,77.20
2017-12-30T10:32:29.389Z,77.60
2017-12-30T10:34:55.609Z,77.50
2017-12-30T10:37:22.776Z,77.40
2017-12-30T10:39:48.963Z,77.50
2017-12-30T10:42:15.202Z,77.50
2017-12-30T10:44:41.446Z,76.90
2017-12-30T10:47:07.926Z,76.80
2017-12-30T10:49:36.127Z,77.70
2017-12-30T10:52:04.157Z,77.70
2017-12-30T10:54:30.652Z,77.60
2017-12-30T10:56:58.022Z,78.10
2017-12-30T10:59:25.054Z,78.10
2017-12-30T11:01:51.775Z,78.00
2017-12-30T11:04:18.811Z,77.20
2017-12-30T11:06:45.109Z,77.10
2017-12-30T11:09:11.337Z,77.10
2017-12-30T11:11:38.439Z,75.40
2017-12-30T11:14:06.918Z,76.60
2017-12-30T11:16:33.769Z,76.50
2017-12-30T11:18:59.982Z,76.20
2017-12-30T11:21:26.186Z,75.10
2017-12-30T11:23:52.798Z,75.40
2017-12-30T11:26:19.989Z,76.20
2017-12-30T11:28:46.245Z,76.20
2017-12-30T11:31:12.751Z,74.90
2017-12-30T11:33:40.358Z,75.40
2017-12-30T11:36:06.721Z,75.30
2017-12-30T11:38:33.947Z,74.30
2017-12-30T11:41:00.271Z,74.20
2017-12-30T11:43:26.617Z,73.90
2017-12-30T11:45:53.636Z,73.60
2017-12-30T11:48:19.946Z,72.90
2017-12-30T11:50:46.142Z,71.40
2017-12-30T11:53:13.021Z,72.10
2017-12-30T11:55:39.788Z,72.40
2017-12-30T11:58:06.556Z,72.60
2017-12-30T12:00:33.506Z,71.30
2017-12-30T12:03:00.425Z,72.10
2017-12-30T12:05:26.708Z,72.10
2017-12-30T12:07:53.202Z,72.60
2017-12-30T12:10:20.813Z,72.50
2017-12-30T12:12:47.564Z,72.50
2017-12-30T12:15:14.106Z,72.80
2017-12-30T12:17:41.890Z,72.70
2017-12-30T12:20:08.101Z,72.50
2017-12-30T12:22:34.312Z,72.90
2017-12-30T12:25:00.537Z,72.20
2017-12-30T12:27:26.810Z,73.20
2017-12-30T12:29:54.189Z,73.40
2017-12-30T12:32:20.629Z,73.40
2017-12-30T12:34:47.840Z,74.30
2017-12-30T12:37:14.859Z,74.10
2017-12-30T12:39:41.179Z,74.10
2017-12-30T12:42:07.434Z,74.60
2017-12-30T12:44:33.639Z,75.00
2017-12-30T12:46:59.917Z,75.40
2017-12-30T12:49:27.638Z,75.60
2017-12-30T12:51:55.804Z,75.40
2017-12-30T12:54:22.062Z,75.40
2017-12-30T12:56:49.386Z,76.30
2017-12-30T12:59:15.641Z,76.20
2017-12-30T13:01:41.950Z,76.30
2017-12-30T13:04:08.447Z,77.00
2017-12-30T13:06:35.438Z,77.00
2017-12-30T13:09:01.683Z,77.00
2017-12-30T13:11:28.511Z,77.10
2017-12-30T13:13:54.718Z,77.30
2017-12-30T13:16:21.318Z,77.90
2017-12-30T13:18:48.560Z,79.70
2017-12-30T13:21:15.631Z,79.60
2017-12-30T13:23:42.269Z,79.70
2017-12-30T13:26:09.332Z,79.80
2017-12-30T13:28:35.657Z,79.80
2017-12-30T13:31:01.926Z,80.00
2017-12-30T13:33:28.890Z,80.00
2017-12-30T13:35:56.276Z,80.10
2017-12-30T13:38:23.798Z,79.90
2017-12-30T13:40:50.787Z,79.80
2017-12-30T13:43:17.261Z,79.70
2017-12-30T13:45:43.471Z,80.00
2017-12-30T13:48:09.786Z,80.30
2017-12-30T13:50:35.998Z,80.30
2017-12-30T13:53:02.480Z,80.30
2017-12-30T13:55:30.130Z,80.60
2017-12-30T13:57:56.990Z,80.60
2017-12-30T14:00:24.051Z,80.70
2017-12-30T14:02:51.138Z,81.20
2017-12-30T14:05:18.177Z,81.10
2017-12-30T14:07:44.487Z,81.10
2017-12-30T14:10:11.770Z,82.00
2017-12-30T14:12:39.415Z,82.50
2017-12-30T14:15:05.922Z,82.50
2017-12-30T14:17:33.076Z,82.60
2017-12-30T14:20:00.864Z,82.60
2017-12-30T14:22:27.344Z,82.60
2017-12-30T14:24:54.458Z,82.50
2017-12-30T14:27:20.683Z,82.40
2017-12-30T14:29:46.969Z,82.90
2017-12-30T14:32:13.612Z,82.50
2017-12-30T14:34:40.771Z,82.90
2017-12-30T14:37:07.840Z,82.40
2017-12-30T14:39:34.072Z,82.40
2017-12-30T14:42:00.292Z,82.00
2017-12-30T14:44:26.634Z,81.60
2017-12-30T14:46:52.894Z,81.10
2017-12-30T14:49:20.189Z,81.30
2017-12-30T14:51:47.234Z,82.90
2017-12-30T14:54:14.242Z,82.70
2017-12-30T14:56:40.482Z,82.70
2017-12-30T14:59:06.686Z,82.50
2017-12-30T15:01:33.055Z,81.90
2017-12-30T15:04:00.670Z,81.60
2017-12-30T15:06:27.483Z,81.60
2017-12-30T15:08:54.157Z,82.00
2017-12-30T15:11:20.678Z,81.50
2017-12-30T15:13:50.016Z,81.70
2017-12-30T15:16:16.221Z,81.60
2017-12-30T15:21:15.540Z,81.50
2017-12-30T15:23:42.779Z,81.00
2017-12-30T15:26:09.135Z,81.20
2017-12-30T15:28:35.380Z,81.90
2017-12-30T15:31:02.588Z,82.50
2017-12-30T15:33:30.702Z,82.60
2017-12-30T15:35:58.309Z,82.10
2017-12-30T15:38:24.700Z,82.00
2017-12-30T15:40:52.193Z,82.40
2017-12-30T15:43:18.757Z,81.70
2017-12-30T15:45:46.238Z,81.50
2017-12-30T15:48:12.823Z,81.50
2017-12-30T15:50:40.444Z,82.40
2017-12-30T15:53:07.423Z,82.70
2017-12-30T15:55:33.646Z,82.60
2017-12-30T15:58:00.672Z,81.80
2017-12-30T16:00:27.798Z,82.20
2017-12-30T16:02:54.091Z,82.20
2017-12-30T16:05:20.302Z,83.00
2017-12-30T16:07:47.307Z,82.80
2017-12-30T16:10:13.510Z,83.60
2017-12-30T16:12:40.664Z,84.20
2017-12-30T16:15:07.458Z,85.20
2017-12-30T16:17:33.720Z,85.00
2017-12-30T16:19:59.982Z,84.60
2017-12-30T16:22:26.976Z,84.20
2017-12-30T16:24:53.247Z,84.60
2017-12-30T16:27:19.839Z,83.60
2017-12-30T16:29:46.057Z,82.90
2017-12-30T16:32:12.280Z,82.80
2017-12-30T16:34:39.095Z,82.90
2017-12-30T16:37:05.377Z,82.30
2017-12-30T16:39:32.604Z,81.80
2017-12-30T16:41:58.916Z,81.80
2017-12-30T16:44:26.160Z,82.40
2017-12-30T16:46:53.146Z,82.30
2017-12-30T16:49:19.490Z,82.20
2017-12-30T16:51:45.714Z,82.30
2017-12-30T16:54:12.578Z,81.90
2017-12-30T16:56:39.321Z,81.50
2017-12-30T16:59:05.980Z,81.50
2017-12-30T17:01:33.519Z,81.30
2017-12-30T17:04:00.303Z,81.20
2017-12-30T17:06:26.545Z,82.30
2017-12-30T17:08:53.893Z,81.50
2017-12-30T17:11:20.798Z,81.60
2017-12-30T17:13:47.264Z,81.40
2017-12-30T17:16:14.311Z,81.60
2017-12-30T17:18:41.048Z,81.60
2017-12-30T17:21:07.640Z,81.90
2017-12-30T17:23:35.233Z,80.70
2017-12-30T17:26:02.435Z,80.70
2017-12-30T17:28:28.694Z,80.60
2017-12-30T17:30:56.233Z,80.60
2017-12-30T17:33:23.028Z,80.60
2017-12-30T17:35:49.868Z,81.30
2017-12-30T17:38:16.429Z,80.80
2017-12-30T17:40:43.628Z,80.80
2017-12-30T17:43:11.192Z,81.40
2017-12-30T17:45:37.474Z,81.30
2017-12-30T17:48:04.885Z,81.50
2017-12-30T17:50:32.028Z,82.10
2017-12-30T17:52:59.064Z,82.50
2017-12-30T17:55:26.097Z,82.10
2017-12-30T17:57:52.334Z,82.10
2017-12-30T18:00:18.822Z,82.30
2017-12-30T18:02:45.429Z,82.60
2017-12-30T18:05:12.799Z,82.00
2017-12-30T18:07:39.590Z,82.20
2017-12-30T18:10:05.936Z,81.90
2017-12-30T18:12:32.701Z,81.20
2017-12-30T18:14:59.495Z,82.30
2017-12-30T18:17:26.439Z,80.80
2017-12-30T18:19:53.376Z,80.60
2017-12-30T18:22:21.148Z,81.20
2017-12-30T18:24:47.384Z,81.20
2017-12-30T18:27:13.993Z,81.20
2017-12-30T18:29:45.232Z,80.90
2017-12-30T18:32:11.505Z,82.50
2017-12-30T18:34:41.805Z,81.60
2017-12-30T18:37:08.884Z,81.40
2017-12-30T18:39:37.039Z,81.80
2017-12-30T18:42:04.000Z,81.60
2017-12-30T18:44:31.863Z,80.90
2017-12-30T18:47:00.954Z,82.90
2017-12-30T18:49:27.823Z,82.90
2017-12-30T18:51:55.786Z,82.80
2017-12-30T18:54:23.161Z,82.30
2017-12-30T18:56:50.180Z,82.20
2017-12-30T18:59:17.342Z,82.40
2017-12-30T19:01:53.373Z,83.00
2017-12-30T19:04:23.850Z,82.60
2017-12-30T19:06:50.649Z,82.00
2017-12-30T19:09:18.378Z,83.10
2017-12-30T19:11:45.347Z,83.20
2017-12-30T19:30:32.749Z,85.20
2017-12-30T19:33:01.373Z,85.00
2017-12-30T19:35:29.274Z,84.80
2017-12-30T19:37:56.355Z,86.20
2017-12-30T19:40:24.982Z,86.20
2017-12-30T19:42:52.815Z,85.60
2017-12-30T19:45:20.231Z,85.10
2017-12-30T19:47:49.318Z,85.30
2017-12-30T19:50:16.566Z,84.80
2017-12-30T19:52:44.825Z,84.70
2017-12-30T19:55:18.110Z,84.20
2017-12-30T19:57:46.750Z,85.30
2017-12-30T20:00:15.033Z,85.90
2017-12-30T20:02:42.634Z,86.70
2017-12-30T20:05:10.330Z,85.90
2017-12-30T20:07:37.516Z,85.30
2017-12-30T20:10:09.621Z,84.80
2017-12-30T20:12:39.652Z,85.50
2017-12-30T20:15:10.673Z,85.40
2017-12-30T20:17:40.555Z,86.20
2017-12-30T20:20:06.943Z,86.00
2017-12-30T20:22:33.574Z,86.50
2017-12-30T20:27:49.489Z,85.60
2017-12-30T20:30:16.319Z,85.10
2017-12-30T20:32:53.620Z,86.70
2017-12-30T20:35:35.680Z,85.90
2017-12-30T20:38:11.107Z,85.00
2017-12-30T20:40:39.134Z,85.10
2017-12-30T20:43:10.916Z,85.10
2017-12-30T20:51:00.378Z,84.50
2017-12-30T20:53:37.868Z,85.40
2017-12-30T20:56:31.132Z,85.40
2017-12-30T20:58:57.463Z,85.10
2017-12-30T21:01:25.590Z,85.40
2017-12-30T21:03:52.560Z,85.40
2017-12-30T21:06:19.943Z,84.90
2017-12-30T21:08:47.621Z,84.20
2017-12-30T21:11:15.298Z,84.20
2017-12-30T21:13:42.753Z,85.10
2017-12-30T21:16:10.971Z,87.00
2017-12-30T21:18:51.528Z,86.40
2017-12-30T21:21:18.102Z,87.50
2017-12-30T21:23:44.929Z,88.70
2017-12-30T21:26:13.432Z,88.10
2017-12-30T21:31:23.381Z,87.40
2017-12-30T21:33:54.480Z,86.80
2017-12-30T22:49:44.076Z,86.80
2017-12-30T22:52:10.881Z,90.00
2017-12-30T22:54:41.769Z,90.20
2017-12-30T22:57:08.754Z,90.10
2017-12-30T22:59:36.931Z,90.00
2017-12-30T23:02:04.377Z,89.60
2017-12-30T23:04:30.856Z,89.70
2017-12-30T23:06:57.072Z,89.70
2017-12-30T23:09:25.537Z,89.30
2017-12-30T23:11:56.981Z,89.30
2017-12-30T23:14:23.523Z,89.00
2017-12-30T23:16:50.963Z,89.00
2017-12-30T23:19:17.900Z,89.00
2017-12-30T23:21:44.152Z,89.90
2017-12-30T23:24:11.250Z,89.00
2017-12-30T23:26:37.479Z,88.90
2017-12-30T23:29:03.696Z,88.70
2017-12-30T23:31:29.934Z,88.80
2017-12-30T23:33:56.290Z,88.50
2017-12-30T23:36:24.307Z,87.70
2017-12-30T23:38:50.527Z,87.70
2017-12-30T23:41:17.055Z,88.00
2017-12-30T23:43:43.298Z,88.30
2017-12-30T23:46:11.042Z,88.20
2017-12-30T23:48:39.302Z,87.60
2017-12-30T23:51:05.559Z,87.40
2017-12-30T23:53:31.925Z,87.40
2017-12-30T23:55:58.865Z,87.50
2017-12-30T23:58:25.959Z,87.30
